Cornocopia Princess — WBQ4974 — position and weather

sailwx.info

Track history (hours):
 
Tides and Currents Weather Stations Pressure Air Temp Water Temp Dewpoint Dewpoint Depression Visibility Wind Speed Wind Dir Waves Ship Positions

Cornocopia Princess

Owner: CORNUCOPIA CRUISE LINE, KEYPORT, NJ. More information available from US FCC via Universal Licensing System and Coast Guard Vessel Documentation Center.

Last reported at 2018-Jun-22 23:23 UTC. Time now 2018-Jun-23 19:35 UTC.
Position N 40°30' W 074°17'.

Length 36 m; draft 2 m.

Type: Ship. MMSI: 367009930.

Date/timePositionNaut miles runAvg speedWind from/ knotsBaromVisibWave heightAir tempDewpointWater temp
2018-Jun-22 23:23N 40°30' W 074°17'0 0.0
2018-Jun-22 22:52N 40°30' W 074°17'0 0.0
2018-Jun-22 11:52N 40°30' W 074°17'0 0.0
2018-Jun-22 11:30N 40°30' W 074°17'0 0.0
2018-Jun-22 11:00N 40°30' W 074°17'0 0.0
2018-Jun-22 10:25N 40°30' W 074°17'0 0.0
2018-Jun-22 09:39N 40°30' W 074°17'0 0.0
2018-Jun-22 08:46N 40°30' W 074°17'0 0.0
2018-Jun-22 08:29N 40°30' W 074°17'8 0.2
2018-Jun-20 10:38N 40°31' W 074°07'1 6.2
2018-Jun-20 10:30N 40°32' W 074°06'4 7.0
2018-Jun-20 09:59N 40°35' W 074°04'4 8.1
2018-Jun-20 09:30N 40°39' W 074°03'4 7.3
2018-Jun-20 09:00N 40°42' W 074°02'1 1.5
2018-Jun-20 08:30N 40°43' W 074°02'0 0.0
2018-Jun-20 08:00N 40°43' W 074°02'1 1.5
2018-Jun-20 07:30N 40°43' W 074°02'2 3.0
2018-Jun-20 07:00N 40°41' W 074°02'1 1.5
2018-Jun-20 06:30N 40°42' W 074°01'2 4.4
2018-Jun-20 06:00N 40°43' W 073°59'0 0.1
2018-Jun-20 05:30N 40°42' W 073°59'3 5.5
2018-Jun-20 05:00N 40°43' W 074°02'0 0.3
2018-Jun-20 04:30N 40°43' W 074°02'1 1.5
2018-Jun-20 04:00N 40°43' W 074°02'0 0.9
2018-Jun-20 03:30N 40°43' W 074°02'0 0.8
2018-Jun-20 03:00N 40°42' W 074°01'3 5.3
2018-Jun-20 02:30N 40°40' W 074°03'3 6.1
2018-Jun-20 02:00N 40°37' W 074°03'3 6.6
2018-Jun-20 01:30N 40°34' W 074°05'10 0.3
2018-Jun-18 12:10N 40°30' W 074°17'0 0.0
2018-Jun-18 10:27N 40°30' W 074°17'0 0.0
2018-Jun-18 08:11N 40°30' W 074°17'0 0.0
2018-Jun-18 07:59N 40°30' W 074°17'0 0.0
2018-Jun-18 07:29N 40°30' W 074°17'0 0.0
2018-Jun-18 06:15N 40°30' W 074°17'0 0.0
2018-Jun-17 13:38N 40°30' W 074°17'0 0.0
2018-Jun-17 13:29N 40°30' W 074°17'0 0.0
2018-Jun-17 13:00N 40°30' W 074°17'0 0.0
2018-Jun-17 12:30N 40°30' W 074°17'0 0.0
2018-Jun-17 12:00N 40°30' W 074°17'0 0.0
2018-Jun-17 11:22N 40°30' W 074°17'0 0.0
2018-Jun-17 10:46N 40°30' W 074°17'  
2018-Jun-14 10:47N 40°31' W 074°07'2 7.1
2018-Jun-14 10:30N 40°32' W 074°06'3 6.6
2018-Jun-14 09:59N 40°35' W 074°03'3 6.9
2018-Jun-14 09:30N 40°39' W 074°03'4 8.1
2018-Jun-14 09:00N 40°43' W 074°02'0 0.7
2018-Jun-14 08:30N 40°43' W 074°02'0 0.0
2018-Jun-14 08:00N 40°43' W 074°02'2 3.2
2018-Jun-14 07:30N 40°44' W 074°01'1 2.7
2018-Jun-14 07:00N 40°42' W 074°01'2 3.9
2018-Jun-14 06:30N 40°43' W 073°59'1 1.4
2018-Jun-14 06:00N 40°43' W 073°58'2 2.9
2018-Jun-14 05:30N 40°42' W 073°60'2 3.5
2018-Jun-14 05:00N 40°42' W 074°02'1 1.5
2018-Jun-14 04:30N 40°41' W 074°02'1 2.9
2018-Jun-14 04:00N 40°43' W 074°02'0 0.0
2018-Jun-14 03:30N 40°43' W 074°02'0 0.0
2018-Jun-14 03:00N 40°43' W 074°02'1 1.4
2018-Jun-14 02:30N 40°43' W 074°02'2 4.4
2018-Jun-14 02:00N 40°45' W 074°01'0 0.0
2018-Jun-14 01:30N 40°45' W 074°01'0 0.0
2018-Jun-14 01:00N 40°45' W 074°01'0 0.0
2018-Jun-14 00:30N 40°45' W 074°01'0 0.0
2018-Jun-14 00:00N 40°45' W 074°01'0 0.0
2018-Jun-13 23:30N 40°45' W 074°01'0 0.0
2018-Jun-13 23:00N 40°45' W 074°01'0 0.0
2018-Jun-13 22:30N 40°45' W 074°01'0 0.0
2018-Jun-13 22:00N 40°45' W 074°01'0 0.0
2018-Jun-13 21:30N 40°45' W 074°01'0 0.0
2018-Jun-13 21:00N 40°45' W 074°01'0 0.0
2018-Jun-13 20:30N 40°45' W 074°01'0 0.0
2018-Jun-13 20:00N 40°45' W 074°01'0 0.0
2018-Jun-13 19:30N 40°45' W 074°01'0 0.0
2018-Jun-13 18:59N 40°45' W 074°01'0 0.0
2018-Jun-13 18:30N 40°45' W 074°01'0 0.0
2018-Jun-13 18:00N 40°45' W 074°01'0 0.0
2018-Jun-13 17:30N 40°45' W 074°01'0 0.0
2018-Jun-13 17:00N 40°45' W 074°01'0 0.0
2018-Jun-13 16:30N 40°45' W 074°01'0 0.0
2018-Jun-13 16:00N 40°45' W 074°01'0 0.0
2018-Jun-13 15:30N 40°45' W 074°01'0 0.0
2018-Jun-13 15:00N 40°45' W 074°01'0 0.0
2018-Jun-13 14:30N 40°45' W 074°01'0 0.0
2018-Jun-13 14:00N 40°45' W 074°01'0 0.0
2018-Jun-13 13:30N 40°45' W 074°01'0 0.0
2018-Jun-13 13:00N 40°45' W 074°01'0 0.0
2018-Jun-13 12:30N 40°45' W 074°01'0 0.0
2018-Jun-13 11:59N 40°45' W 074°01'0 0.0
2018-Jun-13 11:30N 40°45' W 074°01'0 0.0
2018-Jun-13 11:00N 40°45' W 074°01'0 0.0
2018-Jun-13 10:30N 40°45' W 074°01'0 0.0
2018-Jun-13 09:59N 40°45' W 074°01'0 0.0
2018-Jun-13 09:30N 40°45' W 074°01'0 0.0
2018-Jun-13 09:00N 40°45' W 074°01'0 0.0
2018-Jun-13 08:30N 40°45' W 074°01'0 0.0
2018-Jun-13 08:00N 40°45' W 074°01'0 0.0
2018-Jun-13 07:30N 40°45' W 074°01'0 0.0
2018-Jun-13 07:00N 40°45' W 074°01'0 0.0
2018-Jun-13 06:30N 40°45' W 074°01'0 0.0
2018-Jun-13 06:00N 40°45' W 074°01'0 0.0
2018-Jun-13 05:30N 40°45' W 074°01'0 0.0
2018-Jun-13 05:00N 40°45' W 074°01'0 0.0
2018-Jun-13 04:30N 40°45' W 074°01'0 0.0
2018-Jun-13 04:00N 40°45' W 074°01'0 0.0
2018-Jun-13 03:29N 40°45' W 074°01'0 0.0
2018-Jun-13 03:00N 40°45' W 074°01'0 0.0
2018-Jun-13 02:27N 40°45' W 074°01'0 0.0
2018-Jun-13 02:00N 40°45' W 074°01'0 0.0
2018-Jun-13 01:30N 40°45' W 074°01'0 0.0
2018-Jun-13 01:00N 40°45' W 074°01'0 0.0
2018-Jun-13 00:30N 40°45' W 074°01'0 0.0
2018-Jun-13 00:00N 40°45' W 074°01'0 0.0
2018-Jun-12 23:30N 40°45' W 074°01'  
Track history (hours):
 
Tides and Currents Weather Stations Pressure Air Temp Water Temp Dewpoint Dewpoint Depression Visibility Wind Speed Wind Dir Waves Ship Positions

Cornocopia Princess

Owner: CORNUCOPIA CRUISE LINE, KEYPORT, NJ. More information available from US FCC via Universal Licensing System and Coast Guard Vessel Documentation Center.

Last reported at 2018-Jun-22 23:23 UTC. Time now 2018-Jun-23 19:35 UTC.
Position N 40°30' W 074°17'.

Length 36 m; draft 2 m.

Type: Ship. MMSI: 367009930.

Date/timePositionNaut miles runAvg speedWind from/ knotsBaromVisibWave heightAir tempDewpointWater temp
2018-Jun-22 23:23N 40°30' W 074°17'0 0.0
2018-Jun-22 22:52N 40°30' W 074°17'0 0.0
2018-Jun-22 11:52N 40°30' W 074°17'0 0.0
2018-Jun-22 11:30N 40°30' W 074°17'0 0.0
2018-Jun-22 11:00N 40°30' W 074°17'0 0.0
2018-Jun-22 10:25N 40°30' W 074°17'0 0.0
2018-Jun-22 09:39N 40°30' W 074°17'0 0.0
2018-Jun-22 08:46N 40°30' W 074°17'0 0.0
2018-Jun-22 08:29N 40°30' W 074°17'8 0.2
2018-Jun-20 10:38N 40°31' W 074°07'1 6.2
2018-Jun-20 10:30N 40°32' W 074°06'4 7.0
2018-Jun-20 09:59N 40°35' W 074°04'4 8.1
2018-Jun-20 09:30N 40°39' W 074°03'4 7.3
2018-Jun-20 09:00N 40°42' W 074°02'1 1.5
2018-Jun-20 08:30N 40°43' W 074°02'0 0.0
2018-Jun-20 08:00N 40°43' W 074°02'1 1.5
2018-Jun-20 07:30N 40°43' W 074°02'2 3.0
2018-Jun-20 07:00N 40°41' W 074°02'1 1.5
2018-Jun-20 06:30N 40°42' W 074°01'2 4.4
2018-Jun-20 06:00N 40°43' W 073°59'0 0.1
2018-Jun-20 05:30N 40°42' W 073°59'3 5.5
2018-Jun-20 05:00N 40°43' W 074°02'0 0.3
2018-Jun-20 04:30N 40°43' W 074°02'1 1.5
2018-Jun-20 04:00N 40°43' W 074°02'0 0.9
2018-Jun-20 03:30N 40°43' W 074°02'0 0.8
2018-Jun-20 03:00N 40°42' W 074°01'3 5.3
2018-Jun-20 02:30N 40°40' W 074°03'3 6.1
2018-Jun-20 02:00N 40°37' W 074°03'3 6.6
2018-Jun-20 01:30N 40°34' W 074°05'10 0.3
2018-Jun-18 12:10N 40°30' W 074°17'0 0.0
2018-Jun-18 10:27N 40°30' W 074°17'0 0.0
2018-Jun-18 08:11N 40°30' W 074°17'0 0.0
2018-Jun-18 07:59N 40°30' W 074°17'0 0.0
2018-Jun-18 07:29N 40°30' W 074°17'0 0.0
2018-Jun-18 06:15N 40°30' W 074°17'0 0.0
2018-Jun-17 13:38N 40°30' W 074°17'0 0.0
2018-Jun-17 13:29N 40°30' W 074°17'0 0.0
2018-Jun-17 13:00N 40°30' W 074°17'0 0.0
2018-Jun-17 12:30N 40°30' W 074°17'0 0.0
2018-Jun-17 12:00N 40°30' W 074°17'0 0.0
2018-Jun-17 11:22N 40°30' W 074°17'0 0.0
2018-Jun-17 10:46N 40°30' W 074°17'  
2018-Jun-14 10:47N 40°31' W 074°07'2 7.1
2018-Jun-14 10:30N 40°32' W 074°06'3 6.6
2018-Jun-14 09:59N 40°35' W 074°03'3 6.9
2018-Jun-14 09:30N 40°39' W 074°03'4 8.1
2018-Jun-14 09:00N 40°43' W 074°02'0 0.7
2018-Jun-14 08:30N 40°43' W 074°02'0 0.0
2018-Jun-14 08:00N 40°43' W 074°02'2 3.2
2018-Jun-14 07:30N 40°44' W 074°01'1 2.7
2018-Jun-14 07:00N 40°42' W 074°01'2 3.9
2018-Jun-14 06:30N 40°43' W 073°59'1 1.4
2018-Jun-14 06:00N 40°43' W 073°58'2 2.9
2018-Jun-14 05:30N 40°42' W 073°60'2 3.5
2018-Jun-14 05:00N 40°42' W 074°02'1 1.5
2018-Jun-14 04:30N 40°41' W 074°02'1 2.9
2018-Jun-14 04:00N 40°43' W 074°02'0 0.0
2018-Jun-14 03:30N 40°43' W 074°02'0 0.0
2018-Jun-14 03:00N 40°43' W 074°02'1 1.4
2018-Jun-14 02:30N 40°43' W 074°02'2 4.4
2018-Jun-14 02:00N 40°45' W 074°01'0 0.0
2018-Jun-14 01:30N 40°45' W 074°01'0 0.0
2018-Jun-14 01:00N 40°45' W 074°01'0 0.0
2018-Jun-14 00:30N 40°45' W 074°01'0 0.0
2018-Jun-14 00:00N 40°45' W 074°01'0 0.0
2018-Jun-13 23:30N 40°45' W 074°01'0 0.0
2018-Jun-13 23:00N 40°45' W 074°01'0 0.0
2018-Jun-13 22:30N 40°45' W 074°01'0 0.0
2018-Jun-13 22:00N 40°45' W 074°01'0 0.0
2018-Jun-13 21:30N 40°45' W 074°01'0 0.0
2018-Jun-13 21:00N 40°45' W 074°01'0 0.0
2018-Jun-13 20:30N 40°45' W 074°01'0 0.0
2018-Jun-13 20:00N 40°45' W 074°01'0 0.0
2018-Jun-13 19:30N 40°45' W 074°01'0 0.0
2018-Jun-13 18:59N 40°45' W 074°01'0 0.0
2018-Jun-13 18:30N 40°45' W 074°01'0 0.0
2018-Jun-13 18:00N 40°45' W 074°01'0 0.0
2018-Jun-13 17:30N 40°45' W 074°01'0 0.0
2018-Jun-13 17:00N 40°45' W 074°01'0 0.0
2018-Jun-13 16:30N 40°45' W 074°01'0 0.0
2018-Jun-13 16:00N 40°45' W 074°01'0 0.0
2018-Jun-13 15:30N 40°45' W 074°01'0 0.0
2018-Jun-13 15:00N 40°45' W 074°01'0 0.0
2018-Jun-13 14:30N 40°45' W 074°01'0 0.0
2018-Jun-13 14:00N 40°45' W 074°01'0 0.0
2018-Jun-13 13:30N 40°45' W 074°01'0 0.0
2018-Jun-13 13:00N 40°45' W 074°01'0 0.0
2018-Jun-13 12:30N 40°45' W 074°01'0 0.0
2018-Jun-13 11:59N 40°45' W 074°01'0 0.0
2018-Jun-13 11:30N 40°45' W 074°01'0 0.0
2018-Jun-13 11:00N 40°45' W 074°01'0 0.0
2018-Jun-13 10:30N 40°45' W 074°01'0 0.0
2018-Jun-13 09:59N 40°45' W 074°01'0 0.0
2018-Jun-13 09:30N 40°45' W 074°01'0 0.0
2018-Jun-13 09:00N 40°45' W 074°01'0 0.0
2018-Jun-13 08:30N 40°45' W 074°01'0 0.0
2018-Jun-13 08:00N 40°45' W 074°01'0 0.0
2018-Jun-13 07:30N 40°45' W 074°01'0 0.0
2018-Jun-13 07:00N 40°45' W 074°01'0 0.0
2018-Jun-13 06:30N 40°45' W 074°01'0 0.0
2018-Jun-13 06:00N 40°45' W 074°01'0 0.0
2018-Jun-13 05:30N 40°45' W 074°01'0 0.0
2018-Jun-13 05:00N 40°45' W 074°01'0 0.0
2018-Jun-13 04:30N 40°45' W 074°01'0 0.0
2018-Jun-13 04:00N 40°45' W 074°01'0 0.0
2018-Jun-13 03:29N 40°45' W 074°01'0 0.0
2018-Jun-13 03:00N 40°45' W 074°01'0 0.0
2018-Jun-13 02:27N 40°45' W 074°01'0 0.0
2018-Jun-13 02:00N 40°45' W 074°01'0 0.0
2018-Jun-13 01:30N 40°45' W 074°01'0 0.0
2018-Jun-13 01:00N 40°45' W 074°01'0 0.0
2018-Jun-13 00:30N 40°45' W 074°01'0 0.0
2018-Jun-13 00:00N 40°45' W 074°01'0 0.0
2018-Jun-12 23:30N 40°45' W 074°01'  

Dump ship's entire track history